Time;durP1;ratioP1;P1;durP2;ratioP2;P2;SDS_P1;SDS_P2;PMS_P1;PMS_P2;Temp;Humidity;BMP_temperature;BMP_pressure;BME280_temperature;BME280_humidity;BME280_pressure;Samples;Min_cycle;Max_cycle;Signal;HPM_P1;HPM_P2
2022/11/13 00:01:30;;;;;;;25.05;18.33;;;12.70;99.90;;;;;;4861446;29;20046;-64
2022/11/13 00:03:58;;;;;;;76.20;60.53;;;12.70;99.90;;;;;;4860933;29;20366;-62
2022/11/13 00:06:24;;;;;;;30.58;24.98;;;12.80;99.90;;;;;;4861107;29;20045;-61
2022/11/13 00:08:54;;;;;;;24.15;19.75;;;12.80;99.90;;;;;;4861102;29;20053;-61
2022/11/13 00:11:21;;;;;;;26.00;19.23;;;12.80;99.90;;;;;;4859997;29;20046;-61
2022/11/13 00:13:48;;;;;;;29.73;19.75;;;12.80;99.90;;;;;;4861376;29;20101;-61
2022/11/13 00:16:17;;;;;;;20.27;16.45;;;12.80;99.90;;;;;;4861652;29;20082;-61
2022/11/13 00:18:44;;;;;;;24.10;17.73;;;12.80;99.90;;;;;;4859876;29;20057;-61
2022/11/13 00:21:13;;;;;;;25.63;19.20;;;12.80;99.90;;;;;;4860916;29;20083;-61
2022/11/13 00:23:40;;;;;;;36.35;30.55;;;12.80;99.90;;;;;;4860096;29;20128;-62
2022/11/13 00:26:12;;;;;;;58.63;40.83;;;12.90;99.90;;;;;;4859666;29;20085;-60
2022/11/13 00:28:38;;;;;;;32.75;26.20;;;12.90;99.90;;;;;;4859616;29;20045;-61
2022/11/13 00:31:06;;;;;;;20.83;16.20;;;12.90;99.90;;;;;;4862066;29;20041;-60
2022/11/13 00:33:33;;;;;;;19.08;16.45;;;12.90;99.90;;;;;;4859623;29;20056;-61
2022/11/13 00:36:22;;;;;;;21.17;16.30;;;12.80;99.90;;;;;;4846798;29;20100;-61
2022/11/13 00:38:52;;;;;;;21.42;16.63;;;12.80;99.90;;;;;;4860269;29;20135;-60
2022/11/13 00:41:19;;;;;;;22.17;16.90;;;12.80;99.90;;;;;;4860727;29;20056;-61
2022/11/13 00:43:46;;;;;;;21.27;15.48;;;12.80;99.90;;;;;;4861428;29;20050;-61
2022/11/13 00:46:13;;;;;;;84.53;75.20;;;12.80;99.90;;;;;;4860972;29;20046;-63
2022/11/13 00:48:40;;;;;;;26.60;21.27;;;12.80;99.90;;;;;;4860913;29;20049;-67
2022/11/13 00:51:07;;;;;;;24.80;18.42;;;12.80;99.90;;;;;;4861199;29;20117;-61
2022/11/13 00:53:34;;;;;;;20.55;17.48;;;12.80;99.90;;;;;;4860743;29;20098;-61
2022/11/13 00:56:01;;;;;;;21.73;16.77;;;12.80;99.90;;;;;;4859294;29;20394;-61
2022/11/13 00:58:28;;;;;;;20.80;14.88;;;12.80;99.90;;;;;;4860045;29;20053;-61
2022/11/13 01:01:02;;;;;;;21.42;15.68;;;12.70;99.90;;;;;;4860598;29;20050;-61
2022/11/13 01:03:28;;;;;;;21.13;15.18;;;12.80;99.90;;;;;;4859695;29;20057;-61
2022/11/13 01:05:55;;;;;;;22.02;16.92;;;12.70;99.90;;;;;;4860845;29;20053;-61
2022/11/13 01:08:22;;;;;;;18.98;14.70;;;12.80;99.90;;;;;;4860119;29;20485;-61
2022/11/13 01:10:49;;;;;;;18.50;15.02;;;12.80;99.90;;;;;;4860221;29;20546;-61
2022/11/13 01:13:19;;;;;;;83.38;62.78;;;12.80;99.90;;;;;;4860267;29;20056;-61
2022/11/13 01:15:46;;;;;;;36.25;29.73;;;12.80;99.90;;;;;;4860316;29;20041;-62
2022/11/13 01:18:13;;;;;;;28.67;21.58;;;12.80;99.90;;;;;;4860194;29;20383;-62
2022/11/13 01:20:40;;;;;;;21.70;16.50;;;12.80;99.90;;;;;;4860419;29;20489;-60
2022/11/13 01:23:07;;;;;;;21.58;15.18;;;12.80;99.90;;;;;;4858997;29;20045;-61
2022/11/13 01:25:33;;;;;;;19.77;15.68;;;12.80;99.90;;;;;;4858856;29;20542;-61
2022/11/13 01:28:01;;;;;;;23.02;16.45;;;12.80;99.90;;;;;;4858867;29;20046;-61
2022/11/13 01:30:28;;;;;;;19.38;15.95;;;12.80;99.90;;;;;;4860310;29;20049;-60
2022/11/13 01:32:54;;;;;;;21.00;15.60;;;12.80;99.90;;;;;;4861564;29;20448;-61
2022/11/13 01:35:21;;;;;;;19.90;14.98;;;12.70;99.90;;;;;;4862596;29;20499;-61
2022/11/13 01:37:48;;;;;;;21.63;15.60;;;12.70;99.90;;;;;;4863672;29;20092;-60
2022/11/13 01:40:15;;;;;;;20.80;15.77;;;12.80;99.90;;;;;;4863628;29;20041;-60
2022/11/13 01:42:42;;;;;;;23.30;16.40;;;12.70;99.90;;;;;;4863766;29;20122;-60
2022/11/13 01:45:46;;;;;;;22.52;17.05;;;12.80;99.90;;;;;;4864165;29;20053;-61
2022/11/13 01:48:12;;;;;;;28.92;22.65;;;12.80;99.90;;;;;;4863496;29;20106;-61
2022/11/13 01:50:39;;;;;;;50.05;30.13;;;12.80;99.90;;;;;;4862267;29;20061;-61
2022/11/13 01:53:06;;;;;;;27.70;20.58;;;12.80;99.90;;;;;;4863926;29;20473;-60
2022/11/13 01:55:33;;;;;;;20.98;15.88;;;12.80;99.90;;;;;;4862507;29;20206;-60
2022/11/13 01:58:00;;;;;;;23.58;15.43;;;12.80;99.90;;;;;;4863691;29;20435;-61
2022/11/13 02:00:27;;;;;;;20.13;14.70;;;12.80;99.90;;;;;;4863629;29;20049;-60
2022/11/13 02:02:54;;;;;;;174.77;157.63;;;12.80;99.90;;;;;;4863389;29;20045;-61
2022/11/13 02:05:21;;;;;;;33.15;26.80;;;12.80;99.90;;;;;;4862104;29;20110;-60
2022/11/13 02:07:48;;;;;;;20.00;16.50;;;12.80;99.90;;;;;;4861733;29;20485;-60
2022/11/13 02:10:15;;;;;;;18.15;14.77;;;12.80;99.90;;;;;;4862596;29;20089;-60
2022/11/13 02:12:42;;;;;;;18.00;14.38;;;12.80;99.90;;;;;;4862135;29;20083;-60
2022/11/13 02:15:09;;;;;;;17.15;14.93;;;12.80;99.90;;;;;;4861943;29;20085;-60
2022/11/13 02:17:42;;;;;;;22.38;17.23;;;12.80;99.90;;;;;;4862956;29;20045;-60
2022/11/13 02:20:09;;;;;;;19.60;14.88;;;12.80;99.90;;;;;;4861418;29;20125;-60
2022/11/13 02:22:47;;;;;;;18.45;15.20;;;12.80;99.90;;;;;;4861699;29;20401;-60
2022/11/13 02:25:14;;;;;;;17.20;14.32;;;12.80;99.90;;;;;;4862064;29;20053;-60
2022/11/13 02:27:45;;;;;;;18.55;14.68;;;12.70;99.90;;;;;;4861446;29;20041;-60
2022/11/13 02:30:16;;;;;;;18.88;14.35;;;12.70;99.90;;;;;;4861476;29;20125;-61
2022/11/13 02:32:52;;;;;;;17.27;13.32;;;12.60;99.90;;;;;;4863690;29;20049;-60
2022/11/13 02:35:28;;;;;;;19.98;15.00;;;12.50;99.90;;;;;;4861564;29;20074;-61
2022/11/13 02:37:56;;;;;;;16.50;12.63;;;12.50;99.90;;;;;;4862365;29;20113;-60
2022/11/13 02:40:23;;;;;;;18.13;12.32;;;12.40;99.90;;;;;;4861389;29;20497;-61
2022/11/13 02:42:49;;;;;;;16.23;13.20;;;12.40;99.90;;;;;;4861547;29;20057;-60
2022/11/13 02:45:16;;;;;;;16.48;12.20;;;12.30;99.90;;;;;;4861511;29;20339;-60
2022/11/13 02:47:43;;;;;;;15.85;12.75;;;12.30;99.90;;;;;;4861270;29;20490;-60
2022/11/13 02:50:10;;;;;;;19.98;13.48;;;12.20;99.90;;;;;;4862299;29;20050;-60
2022/11/13 02:52:37;;;;;;;18.88;13.70;;;12.20;99.90;;;;;;4861133;29;20049;-61
2022/11/13 02:55:04;;;;;;;19.65;13.30;;;12.10;99.90;;;;;;4862588;29;20045;-60
2022/11/13 02:57:31;;;;;;;16.38;12.52;;;12.10;99.90;;;;;;4862288;29;20049;-61
2022/11/13 02:59:58;;;;;;;18.50;13.80;;;12.00;99.90;;;;;;4861436;29;20097;-60
2022/11/13 03:02:25;;;;;;;16.05;12.90;;;11.90;99.90;;;;;;4862983;29;20359;-60
2022/11/13 03:04:52;;;;;;;18.13;13.05;;;11.90;99.90;;;;;;4862252;29;20188;-60
2022/11/13 03:07:39;;;;;;;19.27;14.27;;;11.80;99.90;;;;;;4861716;29;20136;-60
2022/11/13 03:10:06;;;;;;;17.30;13.00;;;11.80;99.90;;;;;;4862864;29;20049;-60
2022/11/13 03:12:33;;;;;;;16.40;12.80;;;11.70;99.90;;;;;;4861827;29;20094;-60
2022/11/13 03:15:00;;;;;;;22.67;14.82;;;11.70;99.90;;;;;;4862744;29;20053;-60
2022/11/13 03:17:29;;;;;;;17.45;12.73;;;11.70;99.90;;;;;;4861721;29;20078;-60
2022/11/13 03:19:56;;;;;;;21.60;14.38;;;11.60;99.90;;;;;;4845229;29;20136;-60
2022/11/13 03:22:23;;;;;;;18.75;14.45;;;11.60;99.90;;;;;;4861480;29;20077;-60
2022/11/13 03:24:49;;;;;;;22.30;13.18;;;11.60;99.90;;;;;;4861942;29;20045;-60
2022/11/13 03:27:16;;;;;;;18.63;14.02;;;11.60;99.90;;;;;;4861466;29;20050;-60
2022/11/13 03:29:43;;;;;;;16.92;12.77;;;11.70;99.90;;;;;;4860649;29;20109;-60
2022/11/13 03:32:10;;;;;;;20.55;14.43;;;11.70;99.90;;;;;;4861533;29;20530;-60
2022/11/13 03:34:38;;;;;;;19.83;13.80;;;11.80;99.90;;;;;;4861151;29;20117;-60
2022/11/13 03:37:04;;;;;;;19.00;12.88;;;11.80;99.90;;;;;;4860474;29;20050;-60
2022/11/13 03:39:31;;;;;;;21.85;12.68;;;11.90;99.90;;;;;;4861364;29;20098;-60
2022/11/13 03:41:58;;;;;;;19.35;13.60;;;11.90;99.90;;;;;;4861641;29;20439;-60
2022/11/13 03:44:25;;;;;;;15.02;12.18;;;12.00;99.90;;;;;;4861346;29;20084;-60
2022/11/13 03:46:52;;;;;;;18.17;12.82;;;12.00;99.90;;;;;;4861376;29;20105;-60
2022/11/13 03:49:18;;;;;;;18.33;13.13;;;12.00;99.90;;;;;;4862178;29;20045;-60
2022/11/13 03:51:45;;;;;;;15.00;11.88;;;12.10;99.90;;;;;;4860218;29;20088;-60
2022/11/13 03:54:12;;;;;;;20.00;12.70;;;12.10;99.90;;;;;;4860008;29;20125;-60
2022/11/13 03:56:39;;;;;;;17.63;12.90;;;12.20;99.90;;;;;;4861266;29;20078;-60
2022/11/13 03:59:06;;;;;;;17.13;12.18;;;12.20;99.90;;;;;;4862079;29;20121;-60
2022/11/13 04:01:33;;;;;;;18.35;11.80;;;12.20;99.90;;;;;;4861781;29;20049;-60
2022/11/13 04:04:00;;;;;;;20.02;12.55;;;12.20;99.90;;;;;;4861685;29;20041;-60
2022/11/13 04:06:27;;;;;;;17.77;12.93;;;12.20;99.90;;;;;;4861631;29;20105;-60
2022/11/13 04:08:54;;;;;;;16.08;12.70;;;12.30;99.90;;;;;;4860888;29;20074;-60
2022/11/13 04:11:21;;;;;;;17.25;11.60;;;12.30;99.90;;;;;;4860944;29;20088;-60
2022/11/13 04:13:47;;;;;;;15.45;11.40;;;12.30;99.90;;;;;;4859580;29;20111;-60
2022/11/13 04:16:14;;;;;;;20.60;15.35;;;12.30;99.90;;;;;;4861470;29;20049;-60
2022/11/13 04:18:41;;;;;;;14.63;12.13;;;12.30;99.90;;;;;;4861110;29;20049;-60
2022/11/13 04:21:08;;;;;;;15.20;11.98;;;12.30;99.90;;;;;;4859970;29;20046;-60
2022/11/13 04:23:35;;;;;;;16.80;12.55;;;12.30;99.90;;;;;;4859483;29;20446;-60
2022/11/13 04:26:02;;;;;;;15.52;12.38;;;12.30;99.90;;;;;;4860535;29;20090;-60
2022/11/13 04:28:29;;;;;;;21.65;14.05;;;12.30;99.90;;;;;;4859387;29;20105;-60
2022/11/13 04:30:56;;;;;;;15.57;11.02;;;12.20;99.90;;;;;;4860815;29;20076;-60
2022/11/13 04:33:23;;;;;;;19.42;13.57;;;12.20;99.90;;;;;;4859313;29;20093;-60
2022/11/13 04:35:50;;;;;;;16.88;12.48;;;12.20;99.90;;;;;;4860515;29;20486;-61
2022/11/13 04:38:16;;;;;;;17.77;12.85;;;12.20;99.90;;;;;;4860497;29;20078;-60
2022/11/13 04:40:43;;;;;;;18.65;12.55;;;12.20;99.90;;;;;;4860848;29;20053;-60
2022/11/13 04:43:10;;;;;;;17.38;13.43;;;12.20;99.90;;;;;;4860370;29;20049;-61
2022/11/13 04:45:37;;;;;;;17.67;12.43;;;12.20;99.90;;;;;;4860003;29;20106;-61
2022/11/13 04:48:04;;;;;;;18.30;13.05;;;12.20;99.90;;;;;;4861676;29;20096;-61
2022/11/13 04:50:31;;;;;;;24.23;13.25;;;12.10;99.90;;;;;;4860970;29;20042;-60
2022/11/13 04:52:58;;;;;;;22.70;12.77;;;12.10;99.90;;;;;;4859514;29;20466;-60
2022/11/13 04:55:24;;;;;;;18.50;12.93;;;12.10;99.90;;;;;;4860352;29;20045;-60
2022/11/13 04:57:54;;;;;;;21.25;12.88;;;12.10;99.90;;;;;;4860360;29;20109;-60
2022/11/13 05:00:21;;;;;;;;;;;12.10;99.90;;;;;;4860364;29;20045;-60
2022/11/13 05:02:48;;;;;;;16.50;11.05;;;12.10;99.90;;;;;;4859344;29;19986;-60
2022/11/13 05:05:15;;;;;;;16.67;12.85;;;12.10;99.90;;;;;;4860888;29;20049;-60
2022/11/13 05:07:42;;;;;;;21.27;15.15;;;12.10;99.90;;;;;;4863156;29;20049;-59
2022/11/13 05:10:08;;;;;;;20.10;13.32;;;12.10;99.90;;;;;;4862772;29;20082;-59
2022/11/13 05:12:35;;;;;;;16.70;11.88;;;12.10;99.90;;;;;;4864099;29;20109;-59
2022/11/13 05:15:03;;;;;;;17.10;12.13;;;12.10;99.90;;;;;;4863623;29;20049;-60
2022/11/13 05:17:30;;;;;;;15.95;12.65;;;12.10;99.90;;;;;;4864128;29;20101;-60
2022/11/13 05:19:57;;;;;;;18.20;12.63;;;12.10;99.90;;;;;;4864556;29;20544;-60
2022/11/13 05:22:23;;;;;;;18.23;12.50;;;12.10;99.90;;;;;;4862659;29;20049;-60
2022/11/13 05:24:50;;;;;;;15.05;12.18;;;12.10;99.90;;;;;;4863997;29;20045;-60
2022/11/13 05:27:17;;;;;;;20.30;12.73;;;12.10;99.90;;;;;;4863878;29;20049;-60
2022/11/13 05:29:44;;;;;;;17.45;12.30;;;12.10;99.90;;;;;;4863610;29;20053;-61
2022/11/13 05:32:11;;;;;;;18.98;13.85;;;12.10;99.90;;;;;;4862425;29;20053;-61
2022/11/13 05:34:37;;;;;;;23.02;14.38;;;12.10;99.90;;;;;;4864398;29;20049;-61
2022/11/13 05:37:04;;;;;;;22.08;13.55;;;12.10;99.90;;;;;;4864553;29;20050;-61
2022/11/13 05:39:31;;;;;;;23.45;13.63;;;12.10;99.90;;;;;;4862501;29;20109;-61
2022/11/13 05:41:58;;;;;;;24.15;13.80;;;12.10;99.90;;;;;;4862202;29;20049;-61
2022/11/13 05:44:25;;;;;;;22.98;14.18;;;12.00;99.90;;;;;;4862232;29;20049;-61
2022/11/13 05:46:52;;;;;;;16.48;12.82;;;12.00;99.90;;;;;;4862868;29;20363;-61
2022/11/13 05:49:19;;;;;;;19.00;12.45;;;12.00;99.90;;;;;;4863359;29;20493;-61
2022/11/13 05:51:45;;;;;;;50.00;13.18;;;12.00;99.90;;;;;;4863242;29;20045;-61
2022/11/13 05:54:12;;;;;;;33.50;11.43;;;12.00;99.90;;;;;;4863514;29;20049;-61
2022/11/13 05:56:39;;;;;;;19.50;10.40;;;11.90;99.90;;;;;;4863427;29;20091;-61
2022/11/13 05:59:06;;;;;;;17.45;10.75;;;12.00;99.90;;;;;;4863061;29;20430;-61
2022/11/13 06:01:35;;;;;;;21.60;12.05;;;12.00;99.90;;;;;;4862236;29;20072;-61
2022/11/13 06:04:02;;;;;;;18.08;11.63;;;12.00;99.90;;;;;;4861797;29;20434;-61
2022/11/13 06:06:30;;;;;;;21.52;11.40;;;12.00;99.90;;;;;;4862622;29;20049;-61
2022/11/13 06:08:58;;;;;;;26.45;12.13;;;12.00;99.90;;;;;;4862065;29;20095;-61
2022/11/13 06:11:26;;;;;;;38.53;11.40;;;12.00;99.90;;;;;;4863605;29;20049;-61
2022/11/13 06:13:53;;;;;;;40.10;12.30;;;11.90;99.90;;;;;;4861986;29;20105;-61
2022/11/13 06:16:33;;;;;;;43.85;11.63;;;11.90;99.90;;;;;;4863922;29;20185;-61
2022/11/13 06:19:01;;;;;;;38.13;11.50;;;11.80;99.90;;;;;;4863324;29;20050;-61
2022/11/13 06:21:29;;;;;;;26.80;10.95;;;11.80;99.90;;;;;;4862483;29;20077;-61
2022/11/13 06:23:57;;;;;;;29.20;10.23;;;11.70;99.90;;;;;;4862559;29;20094;-61
2022/11/13 06:26:26;;;;;;;24.60;10.93;;;11.70;99.90;;;;;;4861640;29;20482;-61
2022/11/13 06:28:53;;;;;;;49.45;13.48;;;11.70;99.90;;;;;;4861436;29;20478;-61
2022/11/13 06:31:25;;;;;;;42.03;12.05;;;11.70;99.90;;;;;;4861755;29;20106;-61
2022/11/13 06:33:52;;;;;;;34.65;10.95;;;11.70;99.90;;;;;;4861729;29;20397;-61
2022/11/13 06:36:23;;;;;;;34.25;10.82;;;11.70;99.90;;;;;;4861225;29;20553;-61
2022/11/13 06:38:50;;;;;;;49.80;10.50;;;11.60;99.90;;;;;;4862658;29;20084;-61
2022/11/13 06:41:19;;;;;;;51.13;10.10;;;11.60;99.90;;;;;;4863542;29;20073;-61
2022/11/13 06:43:46;;;;;;;45.38;10.32;;;11.60;99.90;;;;;;4862706;29;20545;-61
2022/11/13 06:46:21;;;;;;;49.88;10.77;;;11.60;99.90;;;;;;4861437;29;20042;-61
2022/11/13 06:48:48;;;;;;;32.67;10.05;;;11.50;99.90;;;;;;4863244;29;20045;-61
2022/11/13 06:51:20;;;;;;;40.47;10.27;;;11.50;99.90;;;;;;4861152;29;20053;-61
2022/11/13 06:53:47;;;;;;;27.27;9.48;;;11.60;99.90;;;;;;4861456;29;20077;-61
2022/11/13 06:56:13;;;;;;;26.88;10.23;;;11.60;99.90;;;;;;4860965;29;20081;-61
2022/11/13 06:58:41;;;;;;;32.90;9.63;;;11.60;99.90;;;;;;4861211;29;20075;-61
2022/11/13 07:01:09;;;;;;;18.55;8.15;;;11.50;99.90;;;;;;4861068;29;20083;-61
2022/11/13 07:03:36;;;;;;;21.00;7.68;;;11.50;99.90;;;;;;4861293;29;20443;-60
2022/11/13 07:06:03;;;;;;;31.13;9.10;;;11.50;99.90;;;;;;4861228;29;20051;-60
2022/11/13 07:08:30;;;;;;;38.20;9.60;;;11.50;99.90;;;;;;4860754;29;20542;-60
2022/11/13 07:10:58;;;;;;;57.67;9.98;;;11.50;99.90;;;;;;4862274;29;20049;-61
2022/11/13 07:13:25;;;;;;;29.20;8.38;;;11.40;99.90;;;;;;4861450;29;20184;-60
2022/11/13 07:15:52;;;;;;;43.15;9.20;;;11.40;99.90;;;;;;4860868;29;20439;-60
2022/11/13 07:18:19;;;;;;;20.52;8.50;;;11.40;99.90;;;;;;4860358;29;20057;-60
2022/11/13 07:20:49;;;;;;;20.92;7.50;;;11.40;99.90;;;;;;4861956;29;20518;-60
2022/11/13 07:23:16;;;;;;;18.50;8.52;;;11.40;99.90;;;;;;4863008;29;20128;-60
2022/11/13 07:25:43;;;;;;;15.73;8.65;;;11.40;99.90;;;;;;4862626;29;20045;-60
2022/11/13 07:28:10;;;;;;;10.50;7.07;;;11.30;99.90;;;;;;4861933;29;20494;-60
2022/11/13 07:30:37;;;;;;;25.80;8.52;;;11.40;99.90;;;;;;4861590;29;20056;-60
2022/11/13 07:33:04;;;;;;;16.90;8.98;;;11.40;99.90;;;;;;4861448;29;20482;-60
2022/11/13 07:35:31;;;;;;;29.02;8.57;;;11.40;99.90;;;;;;4862107;29;20125;-60
2022/11/13 07:37:58;;;;;;;25.80;9.55;;;11.40;99.90;;;;;;4861802;29;20395;-60
2022/11/13 07:40:24;;;;;;;20.08;10.23;;;11.40;99.90;;;;;;4860470;29;20099;-60
2022/11/13 07:43:01;;;;;;;18.48;8.40;;;11.40;99.90;;;;;;4861969;29;20119;-60
2022/11/13 07:45:28;;;;;;;17.05;9.50;;;11.40;99.90;;;;;;4861190;29;20456;-60
2022/11/13 07:47:58;;;;;;;13.40;9.38;;;11.50;99.90;;;;;;4859953;29;20057;-60
2022/11/13 07:50:34;;;;;;;29.15;9.57;;;11.50;99.90;;;;;;4861190;29;20450;-60
2022/11/13 07:53:03;;;;;;;16.08;9.23;;;11.50;99.90;;;;;;4860773;29;20045;-60
2022/11/13 07:55:31;;;;;;;25.40;9.80;;;11.50;99.90;;;;;;4860343;29;20041;-60
2022/11/13 07:57:58;;;;;;;18.15;8.95;;;11.50;99.90;;;;;;4860448;29;20057;-60
2022/11/13 08:00:26;;;;;;;40.90;10.23;;;11.50;99.90;;;;;;4860188;29;20045;-60
2022/11/13 08:02:53;;;;;;;17.02;7.95;;;11.50;99.90;;;;;;4860072;29;20061;-61
2022/11/13 08:05:20;;;;;;;16.55;8.80;;;11.50;99.90;;;;;;4859946;29;20053;-60
2022/11/13 08:07:47;;;;;;;13.95;8.27;;;11.50;99.90;;;;;;4860737;29;20092;-60
2022/11/13 08:10:17;;;;;;;19.67;9.95;;;11.50;99.90;;;;;;4861103;29;20049;-60
2022/11/13 08:12:44;;;;;;;16.40;10.18;;;11.50;99.90;;;;;;4859597;29;20057;-60
2022/11/13 08:15:11;;;;;;;15.80;7.90;;;11.50;99.90;;;;;;4859649;29;20049;-60
2022/11/13 08:17:39;;;;;;;16.30;8.70;;;11.50;99.90;;;;;;4859704;29;20113;-60
2022/11/13 08:20:06;;;;;;;30.00;8.45;;;11.60;99.90;;;;;;4859334;29;20443;-60
2022/11/13 08:22:33;;;;;;;19.45;9.52;;;11.60;99.90;;;;;;4860998;29;20109;-60
2022/11/13 08:25:00;;;;;;;25.88;10.55;;;11.60;99.90;;;;;;4861309;29;20204;-60
2022/11/13 08:27:27;;;;;;;25.08;9.52;;;11.60;99.90;;;;;;4860632;29;20085;-60
2022/11/13 08:29:54;;;;;;;20.52;9.73;;;11.50;99.90;;;;;;4859619;29;20457;-60
2022/11/13 08:32:21;;;;;;;27.80;9.63;;;11.50;99.90;;;;;;4861346;29;20046;-60
2022/11/13 08:34:48;;;;;;;16.90;8.75;;;11.50;99.90;;;;;;4860863;29;20392;-60
2022/11/13 08:37:15;;;;;;;33.47;10.15;;;11.50;99.90;;;;;;4859703;29;20045;-60
2022/11/13 08:39:41;;;;;;;27.50;9.32;;;11.50;99.90;;;;;;4863464;29;20086;-60
2022/11/13 08:42:08;;;;;;;15.23;9.65;;;11.50;99.90;;;;;;4863784;29;20075;-60
2022/11/13 08:44:35;;;;;;;26.08;8.88;;;11.50;99.90;;;;;;4861352;29;20086;-60
2022/11/13 08:47:02;;;;;;;22.35;8.52;;;11.50;99.90;;;;;;4859987;29;20046;-60
2022/11/13 08:49:29;;;;;;;21.42;8.73;;;11.50;99.90;;;;;;4859888;29;20478;-60
2022/11/13 08:51:56;;;;;;;31.92;8.50;;;11.50;99.90;;;;;;4860326;29;20538;-60
2022/11/13 08:54:23;;;;;;;16.05;8.13;;;11.50;99.90;;;;;;4860099;29;20049;-60
2022/11/13 08:56:50;;;;;;;17.08;7.82;;;11.50;99.90;;;;;;4861426;29;20046;-60
2022/11/13 08:59:22;;;;;;;22.50;8.32;;;11.60;99.90;;;;;;4844754;29;20128;-60
2022/11/13 09:01:52;;;;;;;23.15;8.35;;;11.60;99.90;;;;;;4860993;29;20045;-60
2022/11/13 09:04:19;;;;;;;20.40;7.60;;;11.60;99.90;;;;;;4860281;29;20098;-60
2022/11/13 09:06:45;;;;;;;18.65;7.85;;;11.50;99.90;;;;;;4860604;29;20409;-60
2022/11/13 09:09:12;;;;;;;27.58;9.07;;;11.50;99.90;;;;;;4860723;29;20060;-60
2022/11/13 09:11:39;;;;;;;25.52;8.63;;;11.60;99.90;;;;;;4861143;29;20045;-60
2022/11/13 09:14:06;;;;;;;19.95;7.78;;;11.60;99.90;;;;;;4860133;29;20098;-60
2022/11/13 09:16:33;;;;;;;18.15;8.65;;;11.50;99.90;;;;;;4860283;29;20054;-60
2022/11/13 09:19:00;;;;;;;21.85;12.30;;;11.60;99.90;;;;;;4860489;29;20402;-59
2022/11/13 09:21:27;;;;;;;22.08;9.07;;;11.60;99.90;;;;;;4860774;29;20051;-59
2022/11/13 09:23:53;;;;;;;17.45;7.80;;;11.70;99.90;;;;;;4860507;29;20529;-59
2022/11/13 09:26:20;;;;;;;16.65;7.50;;;11.70;99.90;;;;;;4860396;29;20049;-60
2022/11/13 09:28:47;;;;;;;11.23;6.97;;;11.70;99.90;;;;;;4860127;29;20102;-60
2022/11/13 09:31:14;;;;;;;9.30;6.32;;;11.70;99.90;;;;;;4860236;29;20098;-60
2022/11/13 09:33:41;;;;;;;12.40;7.35;;;11.70;99.90;;;;;;4860487;29;20049;-59
2022/11/13 09:36:13;;;;;;;8.20;7.10;;;11.70;99.90;;;;;;4860741;29;20423;-60
2022/11/13 09:38:40;;;;;;;11.85;7.35;;;11.80;99.90;;;;;;4844870;29;20105;-59
2022/11/13 09:41:11;;;;;;;9.00;7.03;;;11.90;99.90;;;;;;4860777;29;20094;-60
2022/11/13 09:43:46;;;;;;;10.23;7.75;;;11.90;99.90;;;;;;4860136;29;20050;-59
2022/11/13 09:46:18;;;;;;;11.52;7.82;;;12.00;99.90;;;;;;4858834;29;20053;-59
2022/11/13 09:48:52;;;;;;;126.13;104.20;;;12.10;99.90;;;;;;4859856;29;20560;-60
2022/11/13 09:51:25;;;;;;;327.40;255.27;;;12.10;99.90;;;;;;4859557;29;20056;-60
2022/11/13 09:53:51;;;;;;;23.33;20.45;;;12.20;99.90;;;;;;4861307;29;20113;-60
2022/11/13 09:56:31;;;;;;;13.40;11.70;;;12.30;99.90;;;;;;4863814;29;20098;-60
2022/11/13 09:59:04;;;;;;;10.25;8.80;;;12.40;99.90;;;;;;4863017;29;20053;-60
2022/11/13 10:01:41;;;;;;;9.82;7.13;;;12.40;99.90;;;;;;4864229;29;20105;-60
2022/11/13 10:04:10;;;;;;;7.93;6.40;;;12.50;99.90;;;;;;4861952;29;20042;-60
2022/11/13 10:06:47;;;;;;;9.35;6.47;;;12.50;99.90;;;;;;4847181;29;20128;-60
2022/11/13 10:09:29;;;;;;;8.05;6.40;;;12.60;99.90;;;;;;4862015;29;20470;-60
2022/11/13 10:11:58;;;;;;;8.55;6.25;;;12.60;99.90;;;;;;4863063;29;20221;-60
2022/11/13 10:14:33;;;;;;;6.80;5.95;;;12.60;99.90;;;;;;4862108;29;20086;-61
2022/11/13 10:17:13;;;;;;;7.93;6.15;;;12.60;99.90;;;;;;4864116;29;20053;-59
2022/11/13 10:19:56;;;;;;;8.55;6.53;;;12.60;99.90;;;;;;4863619;29;20057;-59
2022/11/13 10:22:39;;;;;;;8.10;6.18;;;12.60;99.90;;;;;;4862433;29;20045;-60
2022/11/13 10:25:15;;;;;;;9.57;6.30;;;12.60;99.90;;;;;;4861648;29;20102;-60
2022/11/13 10:27:44;;;;;;;7.32;6.53;;;12.60;99.90;;;;;;4862794;29;20093;-60
2022/11/13 10:30:13;;;;;;;6.93;5.60;;;12.70;99.90;;;;;;4861998;29;20101;-61
2022/11/13 10:32:40;;;;;;;49.22;40.58;;;12.70;99.90;;;;;;4862972;29;20125;-62
2022/11/13 10:35:06;;;;;;;89.18;74.25;;;12.70;99.90;;;;;;4863500;29;20247;-60
2022/11/13 10:38:04;;;;;;;12.55;11.05;;;12.80;99.90;;;;;;4863761;29;20085;-60
2022/11/13 10:40:36;;;;;;;8.27;6.88;;;12.80;99.90;;;;;;4848640;29;20124;-60
2022/11/13 10:43:14;;;;;;;6.97;5.88;;;12.90;99.90;;;;;;4862584;29;20097;-61
2022/11/13 10:45:42;;;;;;;8.57;5.55;;;12.90;99.90;;;;;;4862972;29;20049;-57
2022/11/13 10:48:32;;;;;;;8.93;5.88;;;13.00;99.90;;;;;;4862464;29;20498;-57
2022/11/13 10:51:02;;;;;;;7.18;5.57;;;13.00;99.90;;;;;;4862637;29;20098;-56
2022/11/13 10:53:39;;;;;;;6.68;5.90;;;13.00;99.90;;;;;;4862325;29;20101;-57
2022/11/13 10:56:28;;;;;;;9.30;5.97;;;13.00;99.90;;;;;;4862798;29;20053;-57
2022/11/13 10:59:01;;;;;;;10.18;6.60;;;13.10;99.90;;;;;;4863248;29;20046;-55
2022/11/13 11:01:28;;;;;;;8.32;6.53;;;13.10;99.90;;;;;;4862775;29;20157;-55
2022/11/13 11:03:55;;;;;;;10.27;8.48;;;13.20;99.90;;;;;;4862485;29;20435;-57
2022/11/13 11:06:37;;;;;;;11.07;7.93;;;13.30;99.90;;;;;;4862650;29;20049;-57
2022/11/13 11:09:28;;;;;;;10.30;8.05;;;13.30;99.90;;;;;;4861142;29;20069;-57
2022/11/13 11:12:17;;;;;;;8.77;6.93;;;13.30;99.90;;;;;;4863095;29;20046;-56
2022/11/13 11:15:17;;;;;;;10.07;7.80;;;13.30;99.90;;;;;;4862192;29;20070;-56
2022/11/13 11:17:48;;;;;;;12.88;8.40;;;13.40;99.90;;;;;;4861062;29;20177;-57
2022/11/13 11:20:38;;;;;;;9.77;7.47;;;13.40;99.90;;;;;;4861825;29;20418;-56
2022/11/13 11:23:43;;;;;;;9.75;8.20;;;13.30;99.90;;;;;;4860840;29;20081;-60
2022/11/13 11:26:16;;;;;;;179.73;152.25;;;13.40;99.90;;;;;;4805064;29;20047;-57
2022/11/13 11:28:49;;;;;;;24.35;21.48;;;13.40;99.90;;;;;;4791026;29;20174;-58
2022/11/13 11:31:22;;;;;;;14.70;12.45;;;13.30;99.90;;;;;;4828476;29;20049;-56
2022/11/13 11:33:53;;;;;;;12.43;10.05;;;13.40;99.90;;;;;;4860628;29;20061;-57
2022/11/13 11:36:22;;;;;;;9.05;8.10;;;13.40;99.90;;;;;;4860567;29;20085;-58
2022/11/13 11:38:58;;;;;;;11.63;8.48;;;13.30;99.90;;;;;;4862321;29;20049;-56
2022/11/13 11:41:39;;;;;;;148.80;114.22;;;13.10;99.90;;;;;;4860999;29;20463;-58
2022/11/13 11:44:27;;;;;;;27.17;19.30;;;13.10;99.90;;;;;;4860800;29;20057;-58
2022/11/13 11:46:54;;;;;;;12.77;10.38;;;13.10;99.90;;;;;;4861494;29;20102;-58
2022/11/13 11:49:21;;;;;;;10.63;8.82;;;13.10;99.90;;;;;;4861506;29;20081;-57
2022/11/13 11:51:57;;;;;;;11.35;8.25;;;13.10;99.90;;;;;;4860388;29;20182;-57
2022/11/13 11:54:27;;;;;;;12.70;10.05;;;13.10;99.90;;;;;;4862210;29;20098;-57
2022/11/13 11:56:58;;;;;;;15.18;8.77;;;13.20;99.90;;;;;;4861754;29;20050;-57
2022/11/13 11:59:43;;;;;;;11.07;9.25;;;13.10;99.90;;;;;;4861211;29;20074;-58
2022/11/13 12:02:34;;;;;;;12.57;10.18;;;13.10;99.90;;;;;;4862206;29;20432;-57
2022/11/13 12:05:19;;;;;;;11.98;9.48;;;13.10;99.90;;;;;;4861416;29;20497;-57
2022/11/13 12:07:55;;;;;;;11.55;10.23;;;13.00;99.90;;;;;;4860108;29;20140;-57
2022/11/13 12:10:38;;;;;;;11.52;10.32;;;12.90;99.90;;;;;;4861273;29;20453;-56
2022/11/13 12:13:30;;;;;;;11.88;9.93;;;13.00;99.90;;;;;;4862421;29;20084;-57
2022/11/13 12:16:00;;;;;;;13.40;10.07;;;13.10;99.90;;;;;;4860964;29;20604;-58
2022/11/13 12:18:41;;;;;;;14.68;11.63;;;13.20;99.90;;;;;;4860852;29;20394;-57
2022/11/13 12:21:13;;;;;;;14.70;11.38;;;13.20;99.90;;;;;;4861522;29;20053;-55
2022/11/13 12:24:21;;;;;;;15.60;11.52;;;13.30;99.90;;;;;;4859948;29;20041;-57
2022/11/13 12:26:57;;;;;;;15.18;12.25;;;13.30;99.90;;;;;;4860736;29;20082;-57
2022/11/13 12:29:42;;;;;;;14.25;11.82;;;13.40;99.90;;;;;;4862077;29;20415;-57
2022/11/13 12:32:53;;;;;;;16.98;12.35;;;13.50;99.90;;;;;;4861771;29;20045;-57
2022/11/13 12:35:22;;;;;;;15.98;13.02;;;13.50;99.90;;;;;;4854745;29;20053;-61
2022/11/13 12:38:07;;;;;;;17.05;11.70;;;13.60;99.90;;;;;;4861646;29;20050;-61
2022/11/13 12:40:45;;;;;;;38.53;34.10;;;13.60;99.90;;;;;;4861462;29;20117;-60
2022/11/13 12:43:17;;;;;;;30.48;23.42;;;13.60;99.90;;;;;;4860732;29;20057;-66
2022/11/13 12:45:55;;;;;;;32.88;26.77;;;13.70;99.90;;;;;;4860781;29;20053;-66